This is the latest recevied weather packets stored in our database for station/object DC1RS. If no packets are shown the sender has not sent any weather packets the latest 10 day(s).
| Time | Temp. | Humidity | Pressure | Rain* | Wind** | Luminosity | Snow |
|---|---|---|---|---|---|---|---|
| 1777735011 | 26.67° C | 21% | 1018 hPa | 0 mm | - | 377 W/m² | - |
| 1777732521 | 26.67° C | 24% | 1018.8 hPa | 0 mm | - | 523 W/m² | - |
| 1777730901 | 26.11° C | 25% | 1019.5 hPa | 0 mm | - | 596 W/m² | - |
| 1777729341 | 26.67° C | 25% | 1019.8 hPa | 0 mm | - | 658 W/m² | - |
| 1777727721 | 26.67° C | 24% | 1020.3 hPa | 0 mm | - | 718 W/m² | - |
| 1777725070 | 25.56° C | 27% | 1021.1 hPa | 0 mm | - | 787 W/m² | - |
| 1777723451 | 25.56° C | 27% | 1021.7 hPa | 0 mm | - | 822 W/m² | - |
| 1777721391 | 24.44° C | 33% | 1021.8 hPa | 0 mm | - | 831 W/m² | - |
| 1777719801 | 24.44° C | 33% | 1022.7 hPa | 0 mm | - | 833 W/m² | - |
| 1777718681 | 23.89° C | 34% | 1022.7 hPa | 0 mm | - | 828 W/m² | - |
| 1777717881 | 23.89° C | 36% | 1023 hPa | 0 mm | - | 824 W/m² | - |
| 1777716291 | 23.33° C | 35% | 1023.4 hPa | 0 mm | - | 800 W/m² | - |
| 1777714181 | 22.22° C | 38% | 1023.9 hPa | 0 mm | - | 749 W/m² | - |
| 1777712590 | 21.67° C | 41% | 1024 hPa | 0 mm | - | 704 W/m² | - |
| 1777710531 | 20.56° C | 46% | 1024.5 hPa | 0 mm | - | 633 W/m² | - |
| 1777708911 | 19.44° C | 47% | 1024.7 hPa | 0 mm | - | 568 W/m² | - |
| 1777707462 | 17.22° C | 51% | 1024.7 hPa | 0 mm | - | 493 W/m² | - |
| 1777705930 | 15.56° C | 56% | 1025 hPa | 0 mm | - | 414 W/m² | - |
| 1777704343 | 13.89° C | 61% | 1025.2 hPa | 0 mm | - | 328 W/m² | - |
| 1777701822 | 11.11° C | 71% | 1024.7 hPa | 0 mm | - | 189 W/m² | - |
| 1777700122 | 10° C | 75% | 1025.2 hPa | 0 mm | - | 112 W/m² | - |
| 1777699162 | 9.44° C | 73% | 1025 hPa | 0 mm | - | 76 W/m² | - |
| 1777697601 | 7.78° C | 80% | 1024.8 hPa | 0 mm | - | 37 W/m² | - |
| 1777695741 | 5.56° C | 88% | 1024.8 hPa | 0 mm | - | 20 W/m² | - |
| 1777694121 | 5.56° C | 86% | 1024.5 hPa | 0 mm | - | 6 W/m² | - |
* Rain latest hour (hover to see other rain measurements)
** Current wind speed in m/s (hover to see current wind gust speed)